Time;durP1;ratioP1;P1;durP2;ratioP2;P2;SDS_P1;SDS_P2;PMS_P1;PMS_P2;Temp;Humidity;BMP_temperature;BMP_pressure;BME280_temperature;BME280_humidity;BME280_pressure;Samples;Min_cycle;Max_cycle;Signal;HPM_P1;HPM_P2
2021/01/30 00:01:52;;;;;;;;;;;;;;;6.16;97.06;94882.09;5051757;28;20016;-43
2021/01/30 00:04:19;;;;;;;;;;;;;;;6.18;97.36;94869.66;5056108;28;19955;-48
2021/01/30 00:06:49;;;;;;;;;;;;;;;6.25;96.66;94879.50;5052263;28;20379;-46
2021/01/30 00:09:16;;;;;;;;;;;;;;;6.19;97.89;94860.00;5058331;28;19955;-47
2021/01/30 00:11:47;;;;;;;;;;;;;;;6.20;97.57;94869.50;5047459;28;20385;-43
2021/01/30 00:14:14;;;;;;;;;;;;;;;6.28;97.88;94873.94;5050490;28;20387;-45
2021/01/30 00:16:40;;;;;;;;;;;;;;;6.21;99.20;94875.56;5047949;28;20019;-44
2021/01/30 00:19:08;;;;;;;;;;;;;;;6.11;100.00;94880.91;5055272;28;19928;-47
2021/01/30 00:21:34;;;;;;;;;;;;;;;6.18;100.00;94877.50;5054364;28;19920;-52
2021/01/30 00:24:01;;;;;;;;;;;;;;;6.20;99.43;94871.31;5052081;28;20357;-45
2021/01/30 00:26:28;;;;;;;;;;;;;;;6.21;99.39;94860.66;5051873;28;19971;-45
2021/01/30 00:28:55;;;;;;;;;;;;;;;6.30;99.33;94878.06;5061109;28;19921;-45
2021/01/30 00:31:25;;;;;;;;;;;;;;;6.26;98.69;94840.06;5068568;28;19921;-43
2021/01/30 00:33:52;;;;;;;;;;;;;;;6.27;98.64;94875.75;5072263;28;19973;-46
2021/01/30 00:36:19;;;;;;;;;;;;;;;6.20;99.69;94879.16;5071312;28;19928;-46
2021/01/30 00:38:46;;;;;;;;;;;;;;;6.23;100.00;94891.91;5069647;28;20369;-43
2021/01/30 00:41:12;;;;;;;;;;;;;;;6.04;100.00;94890.34;5073610;28;20015;-43
2021/01/30 00:43:58;;;;;;;;;;;;;;;6.04;100.00;94899.03;5070224;28;19970;-43
2021/01/30 00:46:26;;;;;;;;;;;;;;;5.99;100.00;94887.38;5003997;28;20325;-56
2021/01/30 00:48:54;;;;;;;;;;;;;;;6.03;100.00;94893.94;5023944;28;19929;-61
2021/01/30 00:51:21;;;;;;;;;;;;;;;5.97;100.00;94887.53;5016457;28;20306;-52
2021/01/30 00:53:52;;;;;;;;;;;;;;;6.10;100.00;94893.16;5005385;28;19928;-57
2021/01/30 00:56:18;;;;;;;;;;;;;;;6.00;100.00;94887.22;5015870;28;19928;-56
2021/01/30 00:58:45;;;;;;;;;;;;;;;5.84;100.00;94885.28;4996213;28;19955;-58
2021/01/30 01:01:13;;;;;;;;;;;;;;;5.98;100.00;94885.72;5012522;28;19921;-55
2021/01/30 01:03:43;;;;;;;;;;;;;;;5.85;100.00;94876.50;5020869;28;20407;-58
2021/01/30 01:06:10;;;;;;;;;;;;;;;5.88;100.00;94889.28;5015310;28;19956;-55
2021/01/30 01:08:36;;;;;;;;;;;;;;;5.88;100.00;94894.50;5007359;28;19976;-55
2021/01/30 01:11:03;;;;;;;;;;;;;;;5.92;100.00;94895.00;5018837;28;21422;-51
2021/01/30 01:13:30;;;;;;;;;;;;;;;5.90;100.00;94892.53;5015017;28;20379;-54
2021/01/30 01:15:58;;;;;;;;;;;;;;;5.88;100.00;94893.66;5022927;28;19925;-55
2021/01/30 01:18:25;;;;;;;;;;;;;;;6.04;100.00;94904.25;5008672;28;19929;-54
2021/01/30 01:20:53;;;;;;;;;;;;;;;6.03;100.00;94904.41;5023262;28;20391;-55
2021/01/30 01:23:20;;;;;;;;;;;;;;;6.02;100.00;94894.91;5003373;28;20015;-57
2021/01/30 01:25:46;;;;;;;;;;;;;;;6.11;100.00;94901.84;5019817;28;19921;-54
2021/01/30 01:28:13;;;;;;;;;;;;;;;6.12;100.00;94901.66;5008926;28;20020;-52
2021/01/30 01:30:40;;;;;;;;;;;;;;;6.27;100.00;94908.97;5023693;28;20490;-55
2021/01/30 01:33:07;;;;;;;;;;;;;;;6.27;100.00;94912.41;5012129;28;20371;-54
2021/01/30 01:35:33;;;;;;;;;;;;;;;6.30;100.00;94896.38;5017357;28;19964;-56
2021/01/30 01:38:01;;;;;;;;;;;;;;;6.24;100.00;94910.09;5016317;28;19927;-52
2021/01/30 01:40:29;;;;;;;;;;;;;;;6.32;100.00;94904.88;5014568;28;20016;-58
2021/01/30 01:42:58;;;;;;;;;;;;;;;6.21;100.00;94896.50;5004138;28;20327;-54
2021/01/30 01:45:25;;;;;;;;;;;;;;;6.35;100.00;94909.81;5007962;28;20296;-54
2021/01/30 01:47:53;;;;;;;;;;;;;;;6.37;100.00;94913.09;5016797;28;20226;-57
2021/01/30 01:50:33;;;;;;;;;;;;;;;6.26;100.00;94925.63;4993878;28;19937;-54
2021/01/30 01:53:03;;;;;;;;;;;;;;;6.33;100.00;94922.25;5024784;28;20000;-58
2021/01/30 01:55:29;;;;;;;;;;;;;;;6.36;100.00;94931.56;5008887;28;20388;-54
2021/01/30 01:57:56;;;;;;;;;;;;;;;6.50;100.00;94943.25;5011355;28;19987;-56
2021/01/30 02:00:24;;;;;;;;;;;;;;;6.48;98.15;94926.88;5014773;28;19965;-56
2021/01/30 02:02:52;;;;;;;;;;;;;;;6.56;98.01;94951.28;5018615;28;19929;-54
2021/01/30 02:05:21;;;;;;;;;;;;;;;6.66;96.86;94953.81;5014529;28;19959;-60
2021/01/30 02:07:48;;;;;;;;;;;;;;;6.72;94.75;94942.69;5026720;28;19929;-59
2021/01/30 02:10:16;;;;;;;;;;;;;;;6.71;94.54;94945.47;5014640;28;19925;-60
2021/01/30 02:12:43;;;;;;;;;;;;;;;6.56;95.26;94953.09;5028613;28;19960;-59
2021/01/30 02:15:11;;;;;;;;;;;;;;;6.48;95.01;94948.66;5017713;28;19925;-55
2021/01/30 02:17:39;;;;;;;;;;;;;;;6.55;94.43;94967.19;5020700;28;19928;-58
2021/01/30 02:20:25;;;;;;;;;;;;;;;6.50;93.58;94965.00;5013690;28;19949;-56
2021/01/30 02:23:04;;;;;;;;;;;;;;;6.45;93.28;94954.19;5021552;28;19932;-56
2021/01/30 02:25:37;;;;;;;;;;;;;;;6.49;92.23;94967.78;5007864;28;19980;-58
2021/01/30 02:28:05;;;;;;;;;;;;;;;6.49;93.83;94973.03;5021974;28;19925;-60
2021/01/30 02:30:37;;;;;;;;;;;;;;;6.33;93.17;94964.13;5003792;28;19969;-58
2021/01/30 02:33:14;;;;;;;;;;;;;;;6.25;94.32;94976.34;5021572;28;19971;-55
2021/01/30 02:35:49;;;;;;;;;;;;;;;6.18;93.87;94973.50;5012447;28;19930;-55
2021/01/30 02:38:18;;;;;;;;;;;;;;;6.15;93.50;94966.78;5014537;28;19964;-56
2021/01/30 02:40:46;;;;;;;;;;;;;;;6.17;93.42;94970.09;5012343;28;20395;-57
2021/01/30 02:43:13;;;;;;;;;;;;;;;6.05;94.74;94971.28;4996600;28;19925;-57
2021/01/30 02:45:44;;;;;;;;;;;;;;;6.26;94.84;94963.09;4997134;28;19970;-56
2021/01/30 02:48:11;;;;;;;;;;;;;;;6.33;94.28;94972.00;4989966;28;19980;-57
2021/01/30 02:50:44;;;;;;;;;;;;;;;6.16;95.74;94971.06;4999239;28;19937;-58
2021/01/30 02:53:12;;;;;;;;;;;;;;;6.21;95.32;94973.22;5009385;28;19971;-59
2021/01/30 02:55:40;;;;;;;;;;;;;;;6.24;95.90;94978.13;4994444;28;20081;-59
2021/01/30 02:58:06;;;;;;;;;;;;;;;6.26;95.13;94959.66;4977973;28;19925;-59
2021/01/30 03:00:33;;;;;;;;;;;;;;;6.26;95.04;94967.50;5002619;28;19926;-59
2021/01/30 03:03:02;;;;;;;;;;;;;;;6.30;94.29;94969.69;4999949;28;20396;-58
2021/01/30 03:05:29;;;;;;;;;;;;;;;6.31;94.21;94976.53;5004485;28;20314;-57
2021/01/30 03:08:15;;;;;;;;;;;;;;;6.10;95.08;94989.19;4999208;28;20036;-58
2021/01/30 03:10:45;;;;;;;;;;;;;;;6.04;95.45;94987.16;5000918;28;20396;-57
2021/01/30 03:13:14;;;;;;;;;;;;;;;6.06;96.21;94983.44;4992783;28;19925;-54
2021/01/30 03:15:41;;;;;;;;;;;;;;;6.15;95.16;94972.03;5001264;28;20029;-57
2021/01/30 03:18:09;;;;;;;;;;;;;;;6.05;95.14;94960.00;4999095;28;19957;-60
2021/01/30 03:20:37;;;;;;;;;;;;;;;6.11;95.10;94972.50;5001345;28;19933;-58
2021/01/30 03:23:04;;;;;;;;;;;;;;;6.13;94.18;94968.75;5004752;28;19979;-53
2021/01/30 03:25:31;;;;;;;;;;;;;;;6.25;93.71;94977.16;4987733;28;19930;-57
2021/01/30 03:27:59;;;;;;;;;;;;;;;6.19;93.32;94977.75;5002584;28;19969;-58
2021/01/30 03:30:26;;;;;;;;;;;;;;;6.28;93.26;94983.88;4982001;28;19925;-59
2021/01/30 03:32:53;;;;;;;;;;;;;;;6.26;93.01;94981.41;4970590;28;19930;-55
2021/01/30 03:35:20;;;;;;;;;;;;;;;6.17;94.01;94984.97;4983139;28;19961;-56
2021/01/30 03:37:47;;;;;;;;;;;;;;;6.15;94.34;94992.13;4993258;28;19945;-55
2021/01/30 03:40:14;;;;;;;;;;;;;;;6.24;93.92;94986.00;4998591;28;20406;-57
2021/01/30 03:42:41;;;;;;;;;;;;;;;6.06;94.79;94978.19;5000456;28;20020;-57
2021/01/30 03:45:10;;;;;;;;;;;;;;;6.02;96.65;94994.34;4994964;28;19933;-57
2021/01/30 03:47:37;;;;;;;;;;;;;;;6.05;99.35;94973.09;5022038;28;19975;-59
2021/01/30 03:50:04;;;;;;;;;;;;;;;5.84;100.00;94984.69;5023744;28;20058;-57
2021/01/30 03:52:31;;;;;;;;;;;;;;;5.94;100.00;94995.09;5019671;28;19925;-58
2021/01/30 03:54:57;;;;;;;;;;;;;;;5.84;100.00;94992.53;5000141;28;20020;-57
2021/01/30 03:57:24;;;;;;;;;;;;;;;5.86;100.00;94997.63;5019509;28;19932;-56
2021/01/30 03:59:51;;;;;;;;;;;;;;;5.81;100.00;95000.69;5019341;28;19929;-57
2021/01/30 04:02:19;;;;;;;;;;;;;;;5.84;100.00;95000.38;5021105;28;20025;-55
2021/01/30 04:04:45;;;;;;;;;;;;;;;5.91;100.00;95001.41;5019317;28;19926;-58
2021/01/30 04:07:12;;;;;;;;;;;;;;;5.92;100.00;95005.72;5013042;28;19983;-58
2021/01/30 04:09:39;;;;;;;;;;;;;;;5.98;100.00;94993.00;5022815;28;19933;-58
2021/01/30 04:12:06;;;;;;;;;;;;;;;5.85;100.00;95001.19;5021499;28;20019;-60
2021/01/30 04:14:33;;;;;;;;;;;;;;;5.78;100.00;95003.63;5017287;28;20293;-58
2021/01/30 04:17:01;;;;;;;;;;;;;;;5.83;100.00;95003.16;5024871;28;19925;-59
2021/01/30 04:19:28;;;;;;;;;;;;;;;5.78;100.00;94994.94;5014515;28;19969;-55
2021/01/30 04:21:55;;;;;;;;;;;;;;;5.90;100.00;94989.31;5023255;28;19968;-57
2021/01/30 04:24:22;;;;;;;;;;;;;;;6.03;100.00;94993.38;5025579;28;19925;-56
2021/01/30 04:26:49;;;;;;;;;;;;;;;6.18;100.00;94987.41;5027012;28;19925;-59
2021/01/30 04:29:16;;;;;;;;;;;;;;;6.11;100.00;94985.56;5012620;28;19929;-54
2021/01/30 04:31:43;;;;;;;;;;;;;;;6.10;99.92;94986.56;5020159;28;20499;-58
2021/01/30 04:34:10;;;;;;;;;;;;;;;6.11;99.66;94982.97;5005761;28;19948;-58
2021/01/30 04:36:37;;;;;;;;;;;;;;;6.19;98.24;94977.75;5020277;28;19968;-57
2021/01/30 04:39:04;;;;;;;;;;;;;;;6.18;98.19;94976.13;5018637;28;19936;-58
2021/01/30 04:41:35;;;;;;;;;;;;;;;6.15;98.30;94981.66;5019260;28;20384;-56
2021/01/30 04:44:04;;;;;;;;;;;;;;;6.19;97.72;94972.53;5017435;28;19975;-61
2021/01/30 04:46:48;;;;;;;;;;;;;;;6.22;97.34;94974.03;5017441;28;20372;-57
2021/01/30 04:49:19;;;;;;;;;;;;;;;6.20;97.61;94971.56;5027469;28;20006;-53
2021/01/30 04:51:49;;;;;;;;;;;;;;;6.15;98.91;94968.59;5021824;28;19965;-59
2021/01/30 04:54:20;;;;;;;;;;;;;;;6.09;98.35;94969.19;5015896;28;19983;-57
2021/01/30 04:57:01;;;;;;;;;;;;;;;6.13;98.23;94967.94;5021785;28;19925;-56
2021/01/30 04:59:31;;;;;;;;;;;;;;;6.18;97.65;94969.09;5016325;28;19979;-59
2021/01/30 05:01:58;;;;;;;;;;;;;;;6.08;98.33;94971.00;5005507;28;20011;-58
2021/01/30 05:04:25;;;;;;;;;;;;;;;6.31;96.50;94966.06;5013227;28;20384;-57
2021/01/30 05:07:19;;;;;;;;;;;;;;;6.24;96.14;94967.66;5020101;28;20020;-58
2021/01/30 05:09:48;;;;;;;;;;;;;;;6.24;95.45;94953.78;4967604;28;19961;-57
2021/01/30 05:12:16;;;;;;;;;;;;;;;6.25;95.04;94961.44;5023996;28;19929;-58
2021/01/30 05:14:45;;;;;;;;;;;;;;;6.20;95.61;94962.91;5010172;28;19929;-58
2021/01/30 05:17:15;;;;;;;;;;;;;;;6.29;94.57;94954.94;5016980;28;19976;-56
2021/01/30 05:19:43;;;;;;;;;;;;;;;6.35;93.31;94954.31;5020829;28;19925;-59
2021/01/30 05:22:12;;;;;;;;;;;;;;;6.30;94.15;94953.16;5017051;28;19925;-58
2021/01/30 05:24:38;;;;;;;;;;;;;;;6.29;92.94;94941.03;5023161;28;20019;-58
2021/01/30 05:30:57;;;;;;;;;;;;;;;6.02;94.25;94945.47;5007476;28;19926;-58
2021/01/30 05:33:39;;;;;;;;;;;;;;;6.09;92.59;94941.25;4999978;28;20379;-56
2021/01/30 05:36:07;;;;;;;;;;;;;;;6.02;93.41;94932.38;5002999;28;20019;-54
2021/01/30 05:38:39;;;;;;;;;;;;;;;6.07;92.16;94929.28;5016829;28;19973;-54
2021/01/30 05:41:07;;;;;;;;;;;;;;;6.03;92.12;94920.13;5016142;28;19971;-55
2021/01/30 05:43:38;;;;;;;;;;;;;;;5.85;92.26;94914.88;5025573;28;19932;-55
2021/01/30 05:46:05;;;;;;;;;;;;;;;5.92;91.50;94929.03;5020794;28;20461;-57
2021/01/30 05:48:34;;;;;;;;;;;;;;;5.85;91.74;94931.44;5021974;28;19932;-51
2021/01/30 05:51:02;;;;;;;;;;;;;;;5.84;91.62;94915.88;5018534;28;20388;-56
2021/01/30 05:53:29;;;;;;;;;;;;;;;5.88;91.59;94923.28;5012144;28;19933;-58
2021/01/30 05:55:55;;;;;;;;;;;;;;;5.74;92.23;94915.16;5019659;28;19933;-57
2021/01/30 05:58:23;;;;;;;;;;;;;;;5.78;91.73;94909.47;5017498;28;19941;-58
2021/01/30 06:00:51;;;;;;;;;;;;;;;5.61;92.96;94910.31;5012983;28;20443;-59
2021/01/30 06:03:21;;;;;;;;;;;;;;;5.57;93.20;94909.78;5022985;28;20562;-52
2021/01/30 06:05:49;;;;;;;;;;;;;;;5.64;92.55;94905.63;5022277;28;19929;-53
2021/01/30 06:08:18;;;;;;;;;;;;;;;5.62;92.80;94915.41;5004451;28;19925;-58
2021/01/30 06:10:45;;;;;;;;;;;;;;;5.56;94.16;94905.53;5017239;28;19925;-53
2021/01/30 06:13:13;;;;;;;;;;;;;;;5.57;94.08;94909.78;5015516;28;19926;-58
2021/01/30 06:15:40;;;;;;;;;;;;;;;5.72;93.50;94902.22;5017523;28;19926;-56
2021/01/30 06:18:30;;;;;;;;;;;;;;;5.65;93.99;94901.22;5027464;28;19925;-59
2021/01/30 06:20:59;;;;;;;;;;;;;;;5.73;94.28;94888.19;4997568;28;20011;-54
2021/01/30 06:23:26;;;;;;;;;;;;;;;5.70;94.59;94889.28;5005474;28;20454;-58
2021/01/30 06:25:53;;;;;;;;;;;;;;;5.77;94.60;94897.34;5025767;28;20020;-55
2021/01/30 06:28:21;;;;;;;;;;;;;;;5.79;94.37;94895.41;5019049;28;19983;-54
2021/01/30 06:30:48;;;;;;;;;;;;;;;5.88;93.14;94897.13;5016023;28;20020;-56
2021/01/30 06:33:19;;;;;;;;;;;;;;;5.86;93.96;94898.22;5026011;28;20427;-58
2021/01/30 06:35:46;;;;;;;;;;;;;;;5.84;94.51;94887.91;5010913;28;20316;-56
2021/01/30 06:38:15;;;;;;;;;;;;;;;5.97;93.74;94884.09;5021330;28;19929;-59
2021/01/30 06:40:53;;;;;;;;;;;;;;;5.92;92.89;94888.00;5017435;28;19929;-56
2021/01/30 06:43:23;;;;;;;;;;;;;;;6.02;92.51;94880.06;5018799;28;19953;-58
2021/01/30 06:46:02;;;;;;;;;;;;;;;6.04;91.88;94883.31;5022858;28;19925;-57
2021/01/30 06:48:29;;;;;;;;;;;;;;;6.04;92.27;94878.09;5008530;28;19930;-57
2021/01/30 06:50:56;;;;;;;;;;;;;;;6.13;91.91;94885.00;5024032;28;19972;-58
2021/01/30 06:53:25;;;;;;;;;;;;;;;6.22;91.07;94880.63;5021269;28;20423;-53
2021/01/30 06:55:52;;;;;;;;;;;;;;;6.15;91.86;94883.03;5022055;28;19975;-57
2021/01/30 06:58:24;;;;;;;;;;;;;;;6.04;92.30;94870.25;5020613;28;19991;-56
2021/01/30 07:00:51;;;;;;;;;;;;;;;6.04;92.61;94885.13;5023026;28;19932;-59
2021/01/30 07:03:20;;;;;;;;;;;;;;;6.18;91.53;94874.88;5018206;28;19925;-53
2021/01/30 07:05:52;;;;;;;;;;;;;;;6.23;90.82;94877.06;5023513;28;19988;-54
2021/01/30 07:08:43;;;;;;;;;;;;;;;6.15;91.29;94874.38;5020588;28;19933;-57
2021/01/30 07:11:27;;;;;;;;;;;;;;;6.22;91.19;94870.16;5013809;28;19925;-53
2021/01/30 07:13:56;;;;;;;;;;;;;;;6.24;90.50;94876.06;5024596;28;20307;-50
2021/01/30 07:16:26;;;;;;;;;;;;;;;6.30;89.75;94870.22;5023519;28;19933;-53
2021/01/30 07:18:57;;;;;;;;;;;;;;;6.30;89.28;94862.34;5028384;28;19961;-58
2021/01/30 07:21:24;;;;;;;;;;;;;;;6.32;88.74;94863.00;5021114;28;20387;-57
2021/01/30 07:23:54;;;;;;;;;;;;;;;6.40;88.39;94873.53;5024191;28;19931;-53
2021/01/30 07:26:22;;;;;;;;;;;;;;;6.46;88.05;94869.44;5010248;28;19929;-58
2021/01/30 07:28:50;;;;;;;;;;;;;;;6.42;87.81;94871.53;5016829;28;19934;-56
2021/01/30 07:31:19;;;;;;;;;;;;;;;6.42;88.07;94874.16;5016037;28;19933;-56
2021/01/30 07:33:48;;;;;;;;;;;;;;;6.49;88.27;94873.53;5022167;28;19925;-56
2021/01/30 07:36:16;;;;;;;;;;;;;;;6.39;88.64;94868.41;5019008;28;19925;-56
2021/01/30 07:38:45;;;;;;;;;;;;;;;6.42;88.36;94874.16;5005686;28;20309;-57
2021/01/30 07:41:15;;;;;;;;;;;;;;;6.48;88.37;94869.28;5011997;28;19925;-58
2021/01/30 07:43:43;;;;;;;;;;;;;;;6.51;87.86;94861.94;5022368;28;20287;-58
2021/01/30 07:46:11;;;;;;;;;;;;;;;6.53;87.18;94859.13;5015789;28;19925;-59
2021/01/30 07:48:41;;;;;;;;;;;;;;;6.60;87.09;94860.13;5019153;28;19933;-59
2021/01/30 08:42:54;;;;;;;;;;;;;;;6.41;89.00;94791.38;5061948;28;19983;-58
2021/01/30 08:45:22;;;;;;;;;;;;;;;6.51;88.60;94808.75;5005934;28;19934;-58
2021/01/30 08:48:07;;;;;;;;;;;;;;;6.36;88.68;94804.09;5000131;28;20069;-59
2021/01/30 08:50:37;;;;;;;;;;;;;;;6.48;88.52;94809.06;5014244;28;20020;-54
2021/01/30 08:53:11;;;;;;;;;;;;;;;6.46;88.02;94829.34;5023942;28;20312;-56
2021/01/30 08:55:53;;;;;;;;;;;;;;;6.47;88.46;94823.13;5020814;28;19983;-56
2021/01/30 08:58:39;;;;;;;;;;;;;;;6.55;87.93;94826.59;5023932;28;20007;-55
2021/01/30 09:01:07;;;;;;;;;;;;;;;6.61;88.09;94828.56;5020967;28;19980;-57
2021/01/30 09:03:55;;;;;;;;;;;;;;;6.69;86.74;94840.03;5026458;28;19926;-56
2021/01/30 09:06:41;;;;;;;;;;;;;;;6.61;87.55;94830.38;5019205;28;19952;-58
2021/01/30 09:09:08;;;;;;;;;;;;;;;6.68;88.19;94831.38;5021424;28;19991;-57
2021/01/30 09:11:37;;;;;;;;;;;;;;;6.56;87.03;94824.78;5021488;28;19925;-57
2021/01/30 09:14:11;;;;;;;;;;;;;;;6.65;87.76;94822.03;5021056;28;19975;-58
2021/01/30 09:16:47;;;;;;;;;;;;;;;6.62;87.29;94822.34;5000231;28;19941;-58
2021/01/30 09:19:17;;;;;;;;;;;;;;;6.62;87.33;94822.34;5002432;28;20420;-55
2021/01/30 09:21:49;;;;;;;;;;;;;;;6.68;86.38;94823.50;5021511;28;20449;-57
2021/01/30 09:24:28;;;;;;;;;;;;;;;6.71;87.01;94819.72;5022716;28;20395;-59
2021/01/30 09:26:58;;;;;;;;;;;;;;;6.78;85.99;94824.19;5019945;28;19931;-58
2021/01/30 09:29:25;;;;;;;;;;;;;;;6.71;86.58;94817.09;5019915;28;19983;-56
2021/01/30 09:31:55;;;;;;;;;;;;;;;6.59;87.67;94806.13;5020512;28;19925;-58
2021/01/30 09:34:22;;;;;;;;;;;;;;;6.65;87.14;94826.44;5022963;28;19933;-55
2021/01/30 09:36:50;;;;;;;;;;;;;;;6.71;87.82;94822.34;5023363;28;19983;-59
2021/01/30 09:39:21;;;;;;;;;;;;;;;6.75;88.45;94823.69;5018747;28;20020;-57
2021/01/30 09:41:48;;;;;;;;;;;;;;;6.73;87.34;94826.47;5029754;28;19960;-58
2021/01/30 09:44:19;;;;;;;;;;;;;;;6.64;86.42;94827.41;5039734;28;20426;-58
2021/01/30 09:46:46;;;;;;;;;;;;;;;6.80;86.44;94827.44;5035531;28;19925;-56
2021/01/30 09:49:16;;;;;;;;;;;;;;;6.76;86.00;94807.81;5039815;28;19971;-59
2021/01/30 09:51:43;;;;;;;;;;;;;;;6.98;86.09;94816.00;5021977;28;19931;-58
2021/01/30 09:54:13;;;;;;;;;;;;;;;7.09;84.63;94816.50;5023278;28;19929;-58
2021/01/30 09:56:40;;;;;;;;;;;;;;;7.32;85.54;94816.66;5027891;28;19928;-58
2021/01/30 09:59:07;;;;;;;;;;;;;;;7.32;84.10;94819.28;5026519;28;20401;-56
2021/01/30 10:01:35;;;;;;;;;;;;;;;7.15;83.21;94807.16;5027467;28;20012;-59
2021/01/30 10:04:16;;;;;;;;;;;;;;;7.32;82.92;94819.28;5028592;28;19971;-59
2021/01/30 10:06:43;;;;;;;;;;;;;;;7.41;83.52;94801.75;5029181;28;19972;-59
2021/01/30 10:09:11;;;;;;;;;;;;;;;7.32;82.90;94813.22;5029957;28;20042;-56
2021/01/30 10:11:38;;;;;;;;;;;;;;;7.50;83.59;94805.16;5027742;28;19933;-57
2021/01/30 10:14:05;;;;;;;;;;;;;;;7.47;81.16;94802.91;5026270;28;19926;-58
2021/01/30 10:16:32;;;;;;;;;;;;;;;7.53;82.67;94796.97;5028480;28;19944;-59
2021/01/30 10:19:00;;;;;;;;;;;;;;;7.40;81.88;94801.91;5027279;28;20611;-58
2021/01/30 10:21:31;;;;;;;;;;;;;;;7.54;81.80;94796.81;5025517;28;20402;-57
2021/01/30 10:23:58;;;;;;;;;;;;;;;7.58;80.96;94786.81;5025254;28;19925;-57
2021/01/30 10:26:25;;;;;;;;;;;;;;;7.71;82.16;94791.50;5023778;28;20019;-57
2021/01/30 10:28:53;;;;;;;;;;;;;;;7.71;80.07;94794.13;5020017;28;19929;-52
2021/01/30 10:31:22;;;;;;;;;;;;;;;7.97;78.08;94797.34;5027015;28;20184;-56
2021/01/30 10:33:50;;;;;;;;;;;;;;;7.93;78.83;94789.97;5022301;28;19925;-57
2021/01/30 10:36:17;;;;;;;;;;;;;;;8.29;78.21;94785.06;5027378;28;19931;-49
2021/01/30 10:38:45;;;;;;;;;;;;;;;8.27;77.36;94787.06;5026686;28;19925;-59
2021/01/30 10:41:14;;;;;;;;;;;;;;;8.40;79.36;94773.41;5027072;28;19925;-58
2021/01/30 10:43:41;;;;;;;;;;;;;;;8.67;78.11;94769.44;5019909;28;19994;-59
2021/01/30 10:46:09;;;;;;;;;;;;;;;8.90;76.89;94769.47;5022323;28;19929;-57
2021/01/30 10:48:37;;;;;;;;;;;;;;;8.96;74.99;94763.50;5027934;28;20032;-58
2021/01/30 10:51:04;;;;;;;;;;;;;;;8.85;74.81;94759.47;5027125;28;19979;-59
2021/01/30 10:53:32;;;;;;;;;;;;;;;9.04;76.90;94753.72;5025043;28;19926;-58
2021/01/30 10:56:00;;;;;;;;;;;;;;;8.93;75.89;94748.09;5027368;28;20431;-59
2021/01/30 10:58:31;;;;;;;;;;;;;;;8.94;76.49;94745.25;5028592;28;19995;-59
2021/01/30 11:00:59;;;;;;;;;;;;;;;8.68;75.86;94750.09;5027568;28;19983;-58
2021/01/30 11:03:27;;;;;;;;;;;;;;;8.54;74.31;94741.97;5027995;28;19948;-56
2021/01/30 11:06:19;;;;;;;;;;;;;;;8.75;74.39;94743.94;5034631;28;19965;-52
2021/01/30 11:08:46;;;;;;;;;;;;;;;8.75;76.40;94737.88;5027479;28;20002;-50
2021/01/30 11:11:21;;;;;;;;;;;;;;;8.85;74.10;94737.66;5025364;28;20304;-54
2021/01/30 11:13:47;;;;;;;;;;;;;;;8.76;73.46;94740.31;5028871;28;19953;-51
2021/01/30 11:16:15;;;;;;;;;;;;;;;8.91;72.62;94729.88;5023361;28;19925;-55
2021/01/30 11:18:47;;;;;;;;;;;;;;;8.85;73.91;94730.56;5030163;28;19925;-54
2021/01/30 11:21:14;;;;;;;;;;;;;;;8.48;73.35;94718.19;5018425;28;19926;-52
2021/01/30 11:23:46;;;;;;;;;;;;;;;8.79;75.26;94733.91;5028102;28;19933;-50
2021/01/30 11:26:19;;;;;;;;;;;;;;;8.83;73.10;94726.47;5023343;28;19926;-54
2021/01/30 11:28:46;;;;;;;;;;;;;;;8.52;71.23;94727.34;5027631;28;20410;-54
2021/01/30 11:31:13;;;;;;;;;;;;;;;8.84;71.41;94731.53;5025280;28;20365;-52
2021/01/30 11:33:40;;;;;;;;;;;;;;;8.87;71.82;94718.06;5029191;28;19987;-54
2021/01/30 11:36:09;;;;;;;;;;;;;;;8.79;71.07;94720.75;5024763;28;19967;-52
2021/01/30 11:38:35;;;;;;;;;;;;;;;8.93;71.32;94724.41;5027125;28;19972;-50
2021/01/30 11:41:02;;;;;;;;;;;;;;;8.88;70.97;94709.19;5024811;28;19975;-52
2021/01/30 11:43:30;;;;;;;;;;;;;;;9.10;73.61;94714.59;5026747;28;19925;-54
2021/01/30 11:45:57;;;;;;;;;;;;;;;8.87;69.29;94706.72;5026944;28;19971;-49
2021/01/30 11:48:24;;;;;;;;;;;;;;;8.91;72.50;94710.63;5025526;28;19941;-54
2021/01/30 11:50:51;;;;;;;;;;;;;;;8.75;71.91;94699.28;5024412;28;20435;-52
2021/01/30 11:53:19;;;;;;;;;;;;;;;8.68;71.64;94705.41;5025153;28;19929;-54
2021/01/30 11:55:48;;;;;;;;;;;;;;;8.85;72.70;94703.47;5026626;28;20020;-52
2021/01/30 11:58:15;;;;;;;;;;;;;;;9.16;73.07;94708.63;5021150;28;19925;-53
2021/01/30 12:00:43;;;;;;;;;;;;;;;8.93;69.31;94696.31;5027645;28;19979;-51
2021/01/30 12:03:12;;;;;;;;;;;;;;;8.88;69.00;94695.22;5023656;28;19983;-54
2021/01/30 12:05:40;;;;;;;;;;;;;;;8.89;69.61;94683.72;5023593;28;19952;-54
2021/01/30 12:08:06;;;;;;;;;;;;;;;8.93;69.56;94692.88;5023999;28;20415;-48
2021/01/30 12:10:33;;;;;;;;;;;;;;;9.08;70.30;94696.34;5027651;28;19964;-54
2021/01/30 12:13:01;;;;;;;;;;;;;;;8.87;68.62;94690.97;5024791;28;19936;-55
2021/01/30 12:15:28;;;;;;;;;;;;;;;8.95;71.42;94677.75;5029667;28;19925;-54
2021/01/30 12:17:55;;;;;;;;;;;;;;;8.65;69.12;94674.22;5023413;28;19932;-56
2021/01/30 12:20:23;;;;;;;;;;;;;;;8.75;71.44;94677.44;5025803;28;19979;-57
2021/01/30 12:22:50;;;;;;;;;;;;;;;8.73;73.18;94669.72;5024077;28;20310;-52
2021/01/30 12:25:18;;;;;;;;;;;;;;;8.86;71.37;94666.50;5024997;28;20012;-51
2021/01/30 12:27:48;;;;;;;;;;;;;;;9.09;70.82;94663.00;5026995;28;20058;-49
2021/01/30 12:30:16;;;;;;;;;;;;;;;9.06;71.97;94674.69;5025653;28;20336;-51
2021/01/30 12:32:42;;;;;;;;;;;;;;;8.85;70.14;94651.72;5024218;28;20365;-55
2021/01/30 12:35:11;;;;;;;;;;;;;;;9.11;71.70;94648.66;5019556;28;19925;-49
2021/01/30 12:37:38;;;;;;;;;;;;;;;8.99;70.99;94655.38;5024117;28;20000;-48
2021/01/30 12:40:06;;;;;;;;;;;;;;;9.08;71.92;94656.09;5023396;28;19979;-55
2021/01/30 12:42:32;;;;;;;;;;;;;;;9.16;72.54;94658.66;5027861;28;20421;-49
2021/01/30 12:44:59;;;;;;;;;;;;;;;9.13;70.79;94628.28;5023496;28;20032;-51
2021/01/30 12:47:26;;;;;;;;;;;;;;;9.15;71.61;94631.56;5022543;28;20341;-52
2021/01/30 12:50:06;;;;;;;;;;;;;;;9.23;71.00;94631.44;5021349;28;19932;-52
2021/01/30 12:52:34;;;;;;;;;;;;;;;9.07;69.58;94625.53;5026437;28;20368;-49
2021/01/30 12:55:01;;;;;;;;;;;;;;;8.94;69.60;94631.41;5021656;28;19935;-54
2021/01/30 12:57:28;;;;;;;;;;;;;;;8.93;69.89;94624.53;5030095;28;20378;-53
2021/01/30 12:59:55;;;;;;;;;;;;;;;8.94;70.31;94628.78;5026781;28;20453;-51
2021/01/30 13:02:22;;;;;;;;;;;;;;;8.94;69.76;94623.53;5033465;28;20339;-52
2021/01/30 13:04:49;;;;;;;;;;;;;;;8.90;70.81;94624.91;5024627;28;19925;-51
2021/01/30 13:07:15;;;;;;;;;;;;;;;8.93;72.85;94629.78;5026448;28;19925;-48
2021/01/30 13:09:43;;;;;;;;;;;;;;;8.74;69.86;94623.22;5025433;28;20358;-54
2021/01/30 13:12:10;;;;;;;;;;;;;;;8.75;68.70;94617.81;5017824;28;19929;-52
2021/01/30 13:14:38;;;;;;;;;;;;;;;8.63;68.71;94607.91;5014108;28;19926;-54
2021/01/30 13:17:05;;;;;;;;;;;;;;;8.65;68.52;94619.88;5026409;28;19926;-48
2021/01/30 13:19:32;;;;;;;;;;;;;;;8.60;67.96;94621.38;5022675;28;19925;-56
2021/01/30 13:21:59;;;;;;;;;;;;;;;8.63;68.86;94619.22;5027685;28;19925;-52
2021/01/30 13:24:25;;;;;;;;;;;;;;;8.42;69.63;94613.81;5022976;28;19987;-57
2021/01/30 13:27:03;;;;;;;;;;;;;;;8.35;70.76;94610.25;5025363;28;19931;-49
2021/01/30 13:29:30;;;;;;;;;;;;;;;8.50;72.22;94614.59;5026906;28;20024;-53
2021/01/30 13:31:56;;;;;;;;;;;;;;;8.44;72.09;94609.22;5028763;28;20299;-48
2021/01/30 13:34:23;;;;;;;;;;;;;;;8.55;71.71;94609.59;5029147;28;20344;-50
2021/01/30 13:36:50;;;;;;;;;;;;;;;8.46;70.89;94610.66;5030049;28;19929;-59
2021/01/30 13:39:17;;;;;;;;;;;;;;;8.45;70.92;94603.78;5029883;28;19984;-59
2021/01/30 13:41:44;;;;;;;;;;;;;;;8.44;70.70;94607.41;5024545;28;19936;-57
2021/01/30 13:44:13;;;;;;;;;;;;;;;8.28;70.51;94603.06;5027536;28;20012;-59
2021/01/30 13:46:39;;;;;;;;;;;;;;;8.36;70.87;94604.81;5027078;28;19990;-59
2021/01/30 13:49:06;;;;;;;;;;;;;;;8.28;71.02;94603.06;5028074;28;19964;-61
2021/01/30 13:51:33;;;;;;;;;;;;;;;8.27;72.49;94596.19;5028866;28;20575;-60
2021/01/30 13:54:00;;;;;;;;;;;;;;;8.26;73.22;94593.75;5028614;28;19979;-60
2021/01/30 13:56:27;;;;;;;;;;;;;;;7.94;68.62;94592.97;5025660;28;19936;-59
2021/01/30 13:58:54;;;;;;;;;;;;;;;7.90;68.91;94590.88;5029289;28;19925;-59
2021/01/30 14:01:25;;;;;;;;;;;;;;;7.93;68.29;94583.47;5026666;28;19995;-59